createdAt,value
2022-09-17T00:01:22.969Z,1.40
2022-09-17T00:03:50.681Z,1.07
2022-09-17T00:06:17.501Z,1.27
2022-09-17T00:08:44.148Z,1.07
2022-09-17T00:11:15.032Z,1.00
2022-09-17T00:13:42.198Z,1.07
2022-09-17T00:16:08.852Z,1.23
2022-09-17T00:18:37.073Z,1.20
2022-09-17T00:21:03.748Z,1.00
2022-09-17T00:23:30.484Z,0.90
2022-09-17T00:25:57.090Z,1.27
2022-09-17T00:28:23.769Z,1.40
2022-09-17T00:30:50.446Z,1.10
2022-09-17T00:33:17.503Z,1.10
2022-09-17T00:35:44.171Z,1.10
2022-09-17T00:38:10.982Z,1.00
2022-09-17T00:40:37.790Z,0.97
2022-09-17T00:43:04.693Z,0.90
2022-09-17T00:45:32.194Z,1.00
2022-09-17T00:48:02.186Z,1.00
2022-09-17T00:50:28.824Z,1.00
2022-09-17T00:53:00.221Z,1.10
2022-09-17T00:55:28.676Z,1.23
2022-09-17T00:57:56.001Z,0.90
2022-09-17T01:00:22.841Z,0.83
2022-09-17T01:02:49.600Z,0.83
2022-09-17T01:05:16.284Z,1.00
2022-09-17T01:07:52.016Z,0.90
2022-09-17T01:10:37.448Z,0.80
2022-09-17T01:13:04.103Z,0.90
2022-09-17T01:15:49.759Z,0.87
2022-09-17T01:18:38.898Z,0.90
2022-09-17T01:21:24.512Z,1.23
2022-09-17T01:23:54.613Z,0.97
2022-09-17T01:26:24.279Z,1.03
2022-09-17T01:29:06.093Z,1.10
2022-09-17T01:31:53.159Z,1.40
2022-09-17T01:34:35.039Z,1.50
2022-09-17T01:37:01.778Z,1.17
2022-09-17T01:39:33.899Z,1.30
2022-09-17T01:42:09.900Z,1.67
2022-09-17T01:44:50.990Z,1.13
2022-09-17T01:47:27.817Z,1.27
2022-09-17T01:49:55.511Z,1.17
2022-09-17T01:52:22.214Z,1.00
2022-09-17T01:54:51.193Z,0.90
2022-09-17T01:57:23.799Z,1.10
2022-09-17T01:59:51.664Z,1.00
2022-09-17T02:02:29.844Z,0.80
2022-09-17T02:05:01.441Z,0.87
2022-09-17T02:07:28.139Z,0.80
2022-09-17T02:09:58.139Z,0.90
2022-09-17T02:12:28.668Z,0.90
2022-09-17T02:14:56.741Z,1.10
2022-09-17T02:17:27.649Z,1.00
2022-09-17T02:19:54.913Z,1.20
2022-09-17T02:22:23.312Z,1.40
2022-09-17T02:24:49.992Z,1.30
2022-09-17T02:27:17.354Z,1.47
2022-09-17T02:29:44.448Z,1.30
2022-09-17T02:32:11.486Z,1.50
2022-09-17T02:34:38.258Z,1.60
2022-09-17T02:37:05.053Z,1.90
2022-09-17T02:39:31.826Z,1.70
2022-09-17T02:42:17.420Z,1.90
2022-09-17T02:44:55.420Z,1.80
2022-09-17T02:47:25.644Z,1.50
2022-09-17T02:49:58.463Z,1.57
2022-09-17T02:52:28.156Z,1.70
2022-09-17T02:54:54.830Z,1.47
2022-09-17T02:57:27.673Z,1.80
2022-09-17T02:59:57.461Z,1.57
2022-09-17T03:02:37.375Z,1.80
2022-09-17T03:05:04.896Z,1.63
2022-09-17T03:07:32.665Z,1.50
2022-09-17T03:09:59.696Z,1.50
2022-09-17T03:12:26.909Z,1.40
2022-09-17T03:14:53.741Z,1.70
2022-09-17T03:17:20.321Z,1.30
2022-09-17T03:19:47.598Z,1.00
2022-09-17T03:22:14.285Z,1.00
2022-09-17T03:24:41.503Z,0.97
2022-09-17T03:27:08.125Z,1.10
2022-09-17T03:29:34.857Z,0.97
2022-09-17T03:32:01.562Z,0.80
2022-09-17T03:34:28.320Z,0.87
2022-09-17T03:36:55.034Z,0.70
2022-09-17T03:39:21.718Z,0.80
2022-09-17T03:41:48.380Z,0.90
2022-09-17T03:44:15.604Z,0.90
2022-09-17T03:46:42.324Z,0.93
2022-09-17T03:49:09.183Z,1.10
2022-09-17T03:51:35.771Z,1.43
2022-09-17T03:54:03.300Z,1.23
2022-09-17T03:56:30.007Z,1.27
2022-09-17T03:59:00.344Z,1.20
2022-09-17T04:01:27.437Z,1.53
2022-09-17T04:03:54.391Z,1.43
2022-09-17T04:06:21.279Z,1.33
2022-09-17T04:08:48.078Z,1.10
2022-09-17T04:11:18.736Z,1.60
2022-09-17T04:13:45.616Z,1.20
2022-09-17T04:16:12.404Z,1.33
2022-09-17T04:18:39.263Z,1.30
2022-09-17T04:21:06.154Z,1.30
2022-09-17T04:23:32.866Z,1.50
2022-09-17T04:25:59.630Z,1.30
2022-09-17T04:28:26.773Z,1.10
2022-09-17T04:30:54.219Z,3.20
2022-09-17T04:33:21.275Z,1.47
2022-09-17T04:35:48.133Z,2.27
2022-09-17T04:38:18.637Z,2.50
2022-09-17T04:40:46.588Z,2.60
2022-09-17T04:43:13.365Z,2.13
2022-09-17T04:45:41.785Z,2.20
2022-09-17T04:48:09.194Z,2.10
2022-09-17T04:50:35.949Z,2.30
2022-09-17T04:53:03.485Z,2.10
2022-09-17T04:55:31.324Z,2.57
2022-09-17T04:57:58.299Z,2.30
2022-09-17T05:00:25.059Z,1.97
2022-09-17T05:02:54.129Z,2.30
2022-09-17T05:05:21.120Z,2.60
2022-09-17T05:07:47.834Z,2.47
2022-09-17T05:10:15.177Z,2.87
2022-09-17T05:12:41.909Z,2.43
2022-09-17T05:15:08.828Z,2.23
2022-09-17T05:17:35.985Z,2.23
2022-09-17T05:20:03.166Z,2.70
2022-09-17T05:22:30.265Z,2.77
2022-09-17T05:24:57.322Z,2.67
2022-09-17T05:27:24.341Z,2.50
2022-09-17T05:29:51.305Z,2.57
2022-09-17T05:32:18.489Z,2.60
2022-09-17T05:34:45.771Z,2.80
2022-09-17T05:37:12.981Z,2.63
2022-09-17T05:39:40.054Z,3.00
2022-09-17T05:42:07.064Z,2.93
2022-09-17T05:44:33.995Z,3.80
2022-09-17T05:47:01.887Z,3.90
2022-09-17T05:49:32.832Z,3.33
2022-09-17T05:52:00.297Z,3.37
2022-09-17T05:54:27.501Z,3.60
2022-09-17T05:56:54.691Z,3.50
2022-09-17T05:59:22.047Z,3.80
2022-09-17T06:01:50.970Z,3.30
2022-09-17T06:04:20.897Z,2.97
2022-09-17T06:06:48.195Z,3.30
2022-09-17T06:09:15.411Z,3.00
2022-09-17T06:11:42.189Z,3.10
2022-09-17T06:14:09.452Z,2.77
2022-09-17T06:16:36.314Z,3.03
2022-09-17T06:19:04.178Z,3.10
2022-09-17T06:21:31.340Z,2.90
2022-09-17T06:23:58.005Z,2.97
2022-09-17T06:26:24.825Z,3.20
2022-09-17T06:28:51.498Z,2.93
2022-09-17T06:31:18.419Z,2.80
2022-09-17T06:33:45.537Z,2.90
2022-09-17T06:36:14.650Z,2.93
2022-09-17T06:38:41.759Z,2.70
2022-09-17T06:41:08.738Z,2.73
2022-09-17T06:43:35.448Z,2.70
2022-09-17T06:46:03.050Z,2.20
2022-09-17T06:48:30.231Z,2.73
2022-09-17T06:50:58.852Z,2.37
2022-09-17T06:53:25.583Z,2.50
2022-09-17T06:55:53.565Z,2.50
2022-09-17T06:58:20.478Z,2.90
2022-09-17T07:00:47.850Z,2.50
2022-09-17T07:03:14.901Z,2.70
2022-09-17T07:05:43.121Z,2.50
2022-09-17T07:10:56.643Z,2.10
2022-09-17T07:13:23.615Z,2.20
2022-09-17T07:15:58.113Z,1.73
2022-09-17T07:18:27.312Z,2.10
2022-09-17T07:20:57.828Z,1.80
2022-09-17T07:23:24.816Z,2.00
2022-09-17T07:28:41.080Z,1.70
2022-09-17T07:33:51.891Z,2.00
2022-09-17T07:36:18.999Z,1.50
2022-09-17T07:38:45.830Z,1.90
2022-09-17T07:41:13.453Z,1.63
2022-09-17T07:46:24.525Z,1.40
2022-09-17T07:51:36.101Z,1.43
2022-09-17T07:54:02.865Z,1.40
2022-09-17T07:56:29.677Z,1.50
2022-09-17T07:58:56.662Z,1.70
2022-09-17T08:01:24.043Z,1.73
2022-09-17T08:03:51.797Z,1.77
2022-09-17T08:06:22.354Z,1.47
2022-09-17T08:08:49.782Z,1.80
2022-09-17T08:11:32.420Z,1.73
2022-09-17T08:14:04.683Z,1.80
2022-09-17T08:16:31.669Z,2.10
2022-09-17T08:18:58.659Z,1.80
2022-09-17T08:21:27.098Z,2.30
2022-09-17T08:23:54.129Z,2.10
2022-09-17T08:26:22.956Z,3.33
2022-09-17T08:28:50.810Z,3.77
2022-09-17T08:31:18.339Z,2.47
2022-09-17T08:33:45.105Z,3.97
2022-09-17T08:36:12.517Z,2.47
2022-09-17T08:38:40.714Z,2.30
2022-09-17T08:41:07.667Z,2.20
2022-09-17T08:43:34.575Z,2.10
2022-09-17T08:46:01.208Z,2.00
2022-09-17T08:48:29.287Z,1.90
2022-09-17T08:51:01.677Z,1.60
2022-09-17T08:53:33.192Z,1.63
2022-09-17T08:56:06.413Z,1.60
2022-09-17T08:58:45.424Z,1.60
2022-09-17T09:01:16.320Z,1.67
2022-09-17T09:04:00.308Z,1.60
2022-09-17T09:06:28.422Z,2.10
2022-09-17T09:09:00.418Z,2.00
2022-09-17T09:11:27.648Z,1.60
2022-09-17T09:13:55.911Z,1.77
2022-09-17T09:16:23.704Z,1.80
2022-09-17T09:18:54.731Z,1.70
2022-09-17T09:21:34.434Z,1.80
2022-09-17T09:24:16.863Z,1.67
2022-09-17T09:26:46.633Z,1.63
2022-09-17T09:29:22.286Z,1.50
2022-09-17T09:31:55.365Z,1.37
2022-09-17T09:34:23.531Z,1.50
2022-09-17T09:36:50.547Z,1.40
2022-09-17T09:39:17.477Z,1.30
2022-09-17T09:41:45.448Z,1.30
2022-09-17T09:44:15.623Z,1.23
2022-09-17T09:46:43.271Z,1.10
2022-09-17T09:49:31.589Z,1.00
2022-09-17T09:52:21.049Z,0.90
2022-09-17T09:54:47.756Z,1.20
2022-09-17T09:57:15.271Z,1.30
2022-09-17T09:59:42.021Z,1.30
2022-09-17T10:02:09.014Z,1.60
2022-09-17T10:04:37.819Z,1.67
2022-09-17T10:07:05.084Z,1.80
2022-09-17T10:09:32.930Z,1.90
2022-09-17T10:12:00.220Z,1.03
2022-09-17T10:14:28.061Z,0.93
2022-09-17T10:17:18.242Z,1.03
2022-09-17T10:19:47.057Z,1.23
2022-09-17T10:22:24.309Z,0.80
2022-09-17T10:24:51.855Z,0.90
2022-09-17T10:27:19.313Z,1.00
2022-09-17T10:29:47.210Z,0.87
2022-09-17T10:32:17.409Z,0.70
2022-09-17T10:34:57.343Z,1.10
2022-09-17T10:37:43.082Z,0.53
2022-09-17T10:40:19.055Z,0.80
2022-09-17T10:42:50.993Z,0.70
2022-09-17T10:45:27.581Z,0.60
2022-09-17T10:47:54.499Z,0.73
2022-09-17T10:50:30.491Z,0.70
2022-09-17T10:52:58.079Z,0.60
2022-09-17T10:55:31.326Z,0.30
2022-09-17T10:58:07.630Z,0.50
2022-09-17T11:00:34.443Z,0.30
2022-09-17T11:03:19.965Z,0.40
2022-09-17T11:06:03.695Z,0.53
2022-09-17T11:08:42.224Z,0.70
2022-09-17T11:11:12.634Z,0.73
2022-09-17T11:13:57.996Z,0.87
2022-09-17T11:16:34.337Z,1.20
2022-09-17T11:19:33.464Z,1.00
2022-09-17T11:22:04.157Z,0.93
2022-09-17T11:24:48.506Z,1.00
2022-09-17T11:27:24.402Z,0.90
2022-09-17T11:30:04.193Z,1.17
2022-09-17T11:32:50.310Z,1.03
2022-09-17T11:35:17.553Z,1.13
2022-09-17T11:37:49.241Z,1.67
2022-09-17T11:40:17.979Z,1.20
2022-09-17T11:42:45.714Z,1.30
2022-09-17T11:45:18.960Z,0.80
2022-09-17T11:47:53.366Z,0.97
2022-09-17T11:50:26.322Z,0.40
2022-09-17T11:53:08.499Z,1.00
2022-09-17T11:55:44.403Z,0.50
2022-09-17T11:58:31.412Z,0.80
2022-09-17T12:01:01.902Z,0.70
2022-09-17T12:03:30.743Z,2.07
2022-09-17T12:05:58.337Z,0.80
2022-09-17T12:08:26.570Z,1.13
2022-09-17T12:10:56.961Z,0.70
2022-09-17T12:13:35.354Z,0.70
2022-09-17T12:16:20.731Z,0.80
2022-09-17T12:18:50.418Z,0.80
2022-09-17T12:21:21.836Z,0.40
2022-09-17T12:23:57.913Z,0.70
2022-09-17T12:26:43.395Z,1.40
2022-09-17T12:29:28.644Z,1.30
2022-09-17T12:32:13.964Z,0.80
2022-09-17T12:34:40.698Z,0.50
2022-09-17T12:37:25.888Z,0.60
2022-09-17T12:39:52.918Z,0.70
2022-09-17T12:42:22.758Z,0.80
2022-09-17T12:44:53.054Z,0.70
2022-09-17T12:47:26.271Z,0.60
2022-09-17T12:50:14.198Z,0.50
2022-09-17T12:53:08.263Z,0.73
2022-09-17T12:55:36.584Z,0.60
2022-09-17T12:58:22.151Z,0.43
2022-09-17T13:00:51.322Z,0.57
2022-09-17T13:03:23.942Z,0.70
2022-09-17T13:05:50.635Z,1.10
2022-09-17T13:08:17.342Z,0.80
2022-09-17T13:11:05.252Z,0.60
2022-09-17T13:16:26.438Z,0.67
2022-09-17T13:22:03.378Z,0.63
2022-09-17T13:27:22.330Z,0.50
2022-09-17T13:29:55.769Z,0.43
2022-09-17T13:32:34.934Z,0.60
2022-09-17T13:35:10.603Z,0.60
2022-09-17T13:37:37.848Z,1.03
2022-09-17T13:40:07.477Z,3.90
2022-09-17T13:42:44.644Z,1.90
2022-09-17T13:45:15.992Z,0.80
2022-09-17T13:47:53.824Z,0.70
2022-09-17T13:50:30.237Z,0.60
2022-09-17T13:52:57.246Z,0.83
2022-09-17T13:55:31.266Z,0.83
2022-09-17T13:57:59.131Z,0.67
2022-09-17T14:00:45.281Z,0.77
2022-09-17T14:03:44.653Z,0.67
2022-09-17T14:06:11.561Z,0.77
2022-09-17T14:08:44.429Z,0.80
2022-09-17T14:11:23.730Z,0.87
2022-09-17T14:13:51.034Z,0.90
2022-09-17T14:16:37.441Z,1.00
2022-09-17T14:19:16.870Z,1.00
2022-09-17T14:22:02.131Z,0.80
2022-09-17T14:24:44.381Z,1.10
2022-09-17T14:27:29.927Z,2.50
2022-09-17T14:30:02.932Z,2.87
2022-09-17T14:33:02.454Z,4.20
2022-09-17T14:35:29.285Z,0.83
2022-09-17T14:37:59.510Z,0.60
2022-09-17T14:40:26.543Z,0.50
2022-09-17T14:42:55.211Z,1.00
2022-09-17T14:48:31.962Z,0.53
2022-09-17T14:51:17.221Z,0.70
2022-09-17T14:53:50.707Z,0.93
2022-09-17T14:56:17.818Z,1.03
2022-09-17T14:58:48.443Z,1.00
2022-09-17T15:01:24.105Z,1.10
2022-09-17T15:03:51.048Z,1.23
2022-09-17T15:06:23.714Z,1.27
2022-09-17T15:08:50.527Z,1.50
2022-09-17T15:11:17.609Z,1.20
2022-09-17T15:13:50.791Z,1.27
2022-09-17T15:16:25.745Z,1.10
2022-09-17T15:19:00.101Z,1.20
2022-09-17T15:21:29.732Z,1.43
2022-09-17T15:24:01.417Z,1.60
2022-09-17T15:26:30.867Z,1.70
2022-09-17T15:28:57.647Z,1.50
2022-09-17T15:31:24.498Z,1.30
2022-09-17T15:33:51.191Z,1.30
2022-09-17T15:36:20.207Z,1.53
2022-09-17T15:38:47.069Z,1.53
2022-09-17T15:41:21.040Z,1.43
2022-09-17T15:43:49.901Z,1.40
2022-09-17T15:46:34.839Z,1.40
2022-09-17T15:49:02.050Z,1.20
2022-09-17T15:51:29.838Z,1.60
2022-09-17T15:53:57.716Z,1.63
2022-09-17T15:56:42.863Z,1.40
2022-09-17T15:59:24.804Z,2.10
2022-09-17T16:01:55.916Z,1.50
2022-09-17T16:04:23.616Z,1.40
2022-09-17T16:06:56.439Z,0.90
2022-09-17T16:09:36.616Z,1.00
2022-09-17T16:12:03.610Z,0.90
2022-09-17T16:14:30.293Z,1.00
2022-09-17T16:16:57.228Z,1.20
2022-09-17T16:19:23.956Z,0.97
2022-09-17T16:21:50.807Z,1.20
2022-09-17T16:24:18.677Z,1.30
2022-09-17T16:26:45.468Z,1.20
2022-09-17T16:29:12.850Z,1.30
2022-09-17T16:31:41.051Z,1.70
2022-09-17T16:34:07.991Z,1.70
2022-09-17T16:36:35.202Z,1.87
2022-09-17T16:39:02.027Z,2.27
2022-09-17T16:41:29.035Z,2.83
2022-09-17T16:43:55.701Z,2.83
2022-09-17T16:46:22.488Z,2.67
2022-09-17T16:48:50.703Z,3.90
2022-09-17T16:51:17.576Z,4.83
2022-09-17T16:53:44.364Z,4.20
2022-09-17T16:56:11.828Z,4.53
2022-09-17T16:58:38.710Z,4.70
2022-09-17T17:01:09.400Z,6.37
2022-09-17T17:03:36.389Z,8.07
2022-09-17T17:06:03.574Z,4.27
2022-09-17T17:08:34.044Z,3.17
2022-09-17T17:11:01.214Z,3.20
2022-09-17T17:13:29.264Z,2.93
2022-09-17T17:15:59.843Z,3.47
2022-09-17T17:18:26.689Z,3.70
2022-09-17T17:20:53.545Z,3.87
2022-09-17T17:23:20.223Z,4.30
2022-09-17T17:25:47.056Z,4.77
2022-09-17T17:28:15.158Z,3.73
2022-09-17T17:30:41.902Z,4.30
2022-09-17T17:33:08.569Z,4.07
2022-09-17T17:35:38.610Z,4.17
2022-09-17T17:38:05.441Z,4.80
2022-09-17T17:40:32.241Z,4.17
2022-09-17T17:42:59.218Z,4.80
2022-09-17T17:45:26.102Z,4.60
2022-09-17T17:47:53.010Z,5.10
2022-09-17T17:50:19.804Z,4.70
2022-09-17T17:52:48.256Z,5.60
2022-09-17T17:55:15.486Z,5.43
2022-09-17T17:57:42.383Z,6.17
2022-09-17T18:00:10.351Z,5.97
2022-09-17T18:02:41.937Z,6.47
2022-09-17T18:05:09.306Z,6.50
2022-09-17T18:07:36.241Z,7.30
2022-09-17T18:10:03.353Z,8.13
2022-09-17T18:12:32.290Z,7.03
2022-09-17T18:14:59.172Z,7.50
2022-09-17T18:17:26.335Z,8.40
2022-09-17T18:19:56.511Z,7.17
2022-09-17T18:22:26.878Z,6.37
2022-09-17T18:24:53.514Z,7.13
2022-09-17T18:27:21.497Z,6.17
2022-09-17T18:29:49.737Z,7.27
2022-09-17T18:32:16.699Z,6.60
2022-09-17T18:34:43.356Z,7.03
2022-09-17T18:37:10.088Z,7.50
2022-09-17T18:42:23.673Z,7.30
2022-09-17T18:44:50.748Z,6.90
2022-09-17T18:47:17.742Z,7.17
2022-09-17T18:49:44.609Z,7.07
2022-09-17T18:52:14.621Z,6.73
2022-09-17T18:54:41.463Z,6.73
2022-09-17T18:57:08.240Z,6.37
2022-09-17T18:59:35.602Z,6.63
2022-09-17T19:02:02.369Z,5.73
2022-09-17T19:04:29.694Z,6.83
2022-09-17T19:06:56.574Z,5.90
2022-09-17T19:09:23.408Z,5.57
2022-09-17T19:11:50.184Z,6.20
2022-09-17T19:14:17.806Z,5.60
2022-09-17T19:16:44.573Z,5.03
2022-09-17T19:19:11.795Z,6.13
2022-09-17T19:21:38.667Z,6.00
2022-09-17T19:24:05.799Z,5.73
2022-09-17T19:26:32.778Z,5.30
2022-09-17T19:29:00.600Z,5.37
2022-09-17T19:31:29.076Z,5.67
2022-09-17T19:33:56.625Z,5.80
2022-09-17T19:36:23.531Z,5.43
2022-09-17T19:38:50.469Z,5.50
2022-09-17T19:41:21.329Z,6.10
2022-09-17T19:43:52.522Z,6.00
2022-09-17T19:46:21.066Z,5.70
2022-09-17T19:48:51.867Z,5.17
2022-09-17T19:51:19.766Z,5.13
2022-09-17T19:53:46.710Z,5.53
2022-09-17T19:56:14.444Z,5.77
2022-09-17T19:58:41.289Z,5.27
2022-09-17T20:01:08.399Z,5.50
2022-09-17T20:03:35.123Z,5.90
2022-09-17T20:06:05.918Z,6.13
2022-09-17T20:08:39.405Z,5.90
2022-09-17T20:11:09.308Z,6.07
2022-09-17T20:13:37.126Z,5.30
2022-09-17T20:16:11.278Z,5.07
2022-09-17T20:18:43.135Z,5.30
2022-09-17T20:21:11.044Z,6.00
2022-09-17T20:23:37.890Z,5.47
2022-09-17T20:26:06.325Z,5.93
2022-09-17T20:28:34.316Z,5.43
2022-09-17T20:31:05.230Z,5.80
2022-09-17T20:33:32.120Z,5.60
2022-09-17T20:36:02.688Z,5.47
2022-09-17T20:41:17.394Z,4.40
2022-09-17T20:43:46.815Z,5.03
2022-09-17T20:46:13.973Z,4.50
2022-09-17T20:48:42.435Z,4.93
2022-09-17T20:51:11.490Z,4.40
2022-09-17T20:53:39.085Z,4.77
2022-09-17T20:56:12.770Z,4.77
2022-09-17T20:58:45.438Z,4.07
2022-09-17T21:01:13.903Z,4.77
2022-09-17T21:03:41.234Z,4.13
2022-09-17T21:06:08.172Z,4.40
2022-09-17T21:08:35.120Z,4.33
2022-09-17T21:11:05.430Z,4.60
2022-09-17T21:13:32.429Z,4.67
2022-09-17T21:15:59.565Z,4.13
2022-09-17T21:18:26.828Z,4.07
2022-09-17T21:20:53.879Z,4.87
2022-09-17T21:23:24.718Z,4.63
2022-09-17T21:25:51.840Z,4.47
2022-09-17T21:28:21.970Z,4.47
2022-09-17T21:30:51.986Z,4.00
2022-09-17T21:33:22.234Z,4.97
2022-09-17T21:35:50.160Z,4.30
2022-09-17T21:38:19.737Z,4.23
2022-09-17T21:40:56.863Z,4.10
2022-09-17T21:43:23.900Z,4.20
2022-09-17T21:46:00.504Z,4.37
2022-09-17T21:48:27.369Z,4.03
2022-09-17T21:51:00.486Z,4.00
2022-09-17T21:53:28.225Z,4.20
2022-09-17T21:55:55.011Z,3.80
2022-09-17T21:58:21.899Z,3.87
2022-09-17T22:00:49.612Z,4.33
2022-09-17T22:03:20.020Z,4.47
2022-09-17T22:05:46.893Z,4.30
2022-09-17T22:08:13.563Z,4.50
2022-09-17T22:10:40.291Z,4.07
2022-09-17T22:13:07.272Z,4.00
2022-09-17T22:15:34.052Z,3.97
2022-09-17T22:18:00.711Z,4.17
2022-09-17T22:20:29.276Z,4.80
2022-09-17T22:22:56.501Z,4.13
2022-09-17T22:25:23.539Z,4.17
2022-09-17T22:28:10.175Z,3.97
2022-09-17T22:30:37.018Z,3.83
2022-09-17T22:33:03.974Z,4.37
2022-09-17T22:35:30.628Z,4.03
2022-09-17T22:37:57.426Z,3.60
2022-09-17T22:40:24.287Z,4.37
2022-09-17T22:42:51.496Z,4.23
2022-09-17T22:45:18.721Z,4.20
2022-09-17T22:47:45.319Z,4.50
2022-09-17T22:50:12.044Z,4.77
2022-09-17T22:52:38.825Z,4.97
2022-09-17T22:55:06.020Z,4.87
2022-09-17T22:57:32.610Z,5.07
2022-09-17T22:59:59.363Z,4.93
2022-09-17T23:02:26.133Z,4.70
2022-09-17T23:04:53.014Z,5.40
2022-09-17T23:07:19.669Z,4.93
2022-09-17T23:09:46.343Z,3.90
2022-09-17T23:12:12.994Z,4.33
2022-09-17T23:14:39.667Z,4.70
2022-09-17T23:17:06.289Z,4.40
2022-09-17T23:19:33.049Z,4.70
2022-09-17T23:21:59.712Z,4.20
2022-09-17T23:24:26.458Z,4.17
2022-09-17T23:26:53.121Z,4.43
2022-09-17T23:29:19.842Z,5.80
2022-09-17T23:31:46.501Z,4.87
2022-09-17T23:34:13.163Z,5.07
2022-09-17T23:36:40.285Z,4.57
2022-09-17T23:39:07.692Z,4.83
2022-09-17T23:41:35.403Z,4.00
2022-09-17T23:44:02.804Z,4.13
2022-09-17T23:46:29.919Z,4.23
2022-09-17T23:48:56.805Z,4.10
2022-09-17T23:51:24.084Z,3.80
2022-09-17T23:53:50.812Z,4.10
2022-09-17T23:56:21.550Z,3.73
2022-09-17T23:58:48.570Z,3.90
